sensor_id;sensor_type;location;lat;lon;timestamp;pressure;altitude;pressure_sealevel;temperature;humidity
68489;BME280;55481;48.764;8.936;2024-03-25T00:00:20;96270;;;5;73.5
68489;BME280;55481;48.764;8.936;2024-03-25T00:02:51;96270;;;5;73.5
68489;BME280;55481;48.764;8.936;2024-03-25T00:07:52;96280;;;5;73.5
68489;BME280;55481;48.764;8.936;2024-03-25T00:10:23;96270;;;5;73.5
68489;BME280;55481;48.764;8.936;2024-03-25T00:12:54;96270;;;5;73.5
68489;BME280;55481;48.764;8.936;2024-03-25T00:18:02;96270;;;4.8;74
68489;BME280;55481;48.764;8.936;2024-03-25T00:20:32;96270;;;4.8;74
68489;BME280;55481;48.764;8.936;2024-03-25T00:23:03;96270;;;4.8;74
68489;BME280;55481;48.764;8.936;2024-03-25T00:25:34;96270;;;4.8;74
68489;BME280;55481;48.764;8.936;2024-03-25T00:28:05;96270;;;4.8;74
68489;BME280;55481;48.764;8.936;2024-03-25T00:30:36;96270;;;4.8;74
68489;BME280;55481;48.764;8.936;2024-03-25T00:33:14;96270;;;4.7;74
68489;BME280;55481;48.764;8.936;2024-03-25T00:38:03;96270;;;4.6;74
68489;BME280;55481;48.764;8.936;2024-03-25T00:40:33;96260;;;4.6;74
68489;BME280;55481;48.764;8.936;2024-03-25T00:43:04;96260;;;4.6;74
68489;BME280;55481;48.764;8.936;2024-03-25T00:45:35;96260;;;4.6;74
68489;BME280;55481;48.764;8.936;2024-03-25T00:48:05;96260;;;4.6;74
68489;BME280;55481;48.764;8.936;2024-03-25T00:50:36;96260;;;4.6;74
68489;BME280;55481;48.764;8.936;2024-03-25T00:53:07;96260;;;4.6;74
68489;BME280;55481;48.764;8.936;2024-03-25T00:55:51;96270;;;4.5;74
68489;BME280;55481;48.764;8.936;2024-03-25T00:58:21;96270;;;4.5;74
68489;BME280;55481;48.764;8.936;2024-03-25T01:08:23;96260;;;4.2;74.5
68489;BME280;55481;48.764;8.936;2024-03-25T01:13:19;96250;;;4.2;74.5
68489;BME280;55481;48.764;8.936;2024-03-25T01:15:56;96250;;;4.2;74.5
68489;BME280;55481;48.764;8.936;2024-03-25T01:18:21;96240;;;4.2;74.5
68489;BME280;55481;48.764;8.936;2024-03-25T01:20:52;96240;;;4.2;74.5
68489;BME280;55481;48.764;8.936;2024-03-25T01:23:30;96240;;;4.3;74
68489;BME280;55481;48.764;8.936;2024-03-25T01:25:54;96230;;;4.3;74
68489;BME280;55481;48.764;8.936;2024-03-25T01:28:25;96240;;;4.3;74.5
68489;BME280;55481;48.764;8.936;2024-03-25T01:30:55;96230;;;4.3;74.5
68489;BME280;55481;48.764;8.936;2024-03-25T01:33:26;96240;;;4.3;74
68489;BME280;55481;48.764;8.936;2024-03-25T01:41:08;96230;;;4.3;74.5
68489;BME280;55481;48.764;8.936;2024-03-25T01:43:35;96240;;;4.3;74.5
68489;BME280;55481;48.764;8.936;2024-03-25T01:45:59;96240;;;4.4;74
68489;BME280;55481;48.764;8.936;2024-03-25T01:48:36;96240;;;4.4;74
68489;BME280;55481;48.764;8.936;2024-03-25T01:51:07;96250;;;4.4;74
68489;BME280;55481;48.764;8.936;2024-03-25T01:53:32;96250;;;4.3;74.5
68489;BME280;55481;48.764;8.936;2024-03-25T01:56:03;96240;;;4.4;74.5
68489;BME280;55481;48.764;8.936;2024-03-25T01:58:34;96240;;;4.4;74
68489;BME280;55481;48.764;8.936;2024-03-25T02:01:05;96240;;;4.5;74
68489;BME280;55481;48.764;8.936;2024-03-25T02:03:29;96240;;;4.5;74
68489;BME280;55481;48.764;8.936;2024-03-25T02:06:01;96240;;;4.5;74
68489;BME280;55481;48.764;8.936;2024-03-25T02:08:30;96240;;;4.6;74
68489;BME280;55481;48.764;8.936;2024-03-25T02:11:01;96240;;;4.6;74
68489;BME280;55481;48.764;8.936;2024-03-25T02:18:34;96230;;;4.7;73.5
68489;BME280;55481;48.764;8.936;2024-03-25T02:21:05;96230;;;4.7;73.5
68489;BME280;55481;48.764;8.936;2024-03-25T02:26:12;96230;;;4.7;73.5
68489;BME280;55481;48.764;8.936;2024-03-25T02:28:43;96230;;;4.8;73.5
68489;BME280;55481;48.764;8.936;2024-03-25T02:31:14;96230;;;4.8;74
68489;BME280;55481;48.764;8.936;2024-03-25T02:33:45;96230;;;4.8;73.5
68489;BME280;55481;48.764;8.936;2024-03-25T02:38:40;96230;;;4.7;74
68489;BME280;55481;48.764;8.936;2024-03-25T02:46:13;96220;;;4.8;74
68489;BME280;55481;48.764;8.936;2024-03-25T02:48:45;96220;;;4.8;74
68489;BME280;55481;48.764;8.936;2024-03-25T02:51:14;96220;;;4.8;73.5
68489;BME280;55481;48.764;8.936;2024-03-25T02:53:45;96220;;;4.8;73.5
68489;BME280;55481;48.764;8.936;2024-03-25T02:56:16;96220;;;4.8;74
68489;BME280;55481;48.764;8.936;2024-03-25T03:01:23;96210;;;4.8;74
68489;BME280;55481;48.764;8.936;2024-03-25T03:03:54;96210;;;4.8;74
68489;BME280;55481;48.764;8.936;2024-03-25T03:11:40;96210;;;4.8;74
68489;BME280;55481;48.764;8.936;2024-03-25T03:14:03;96210;;;4.8;74
68489;BME280;55481;48.764;8.936;2024-03-25T03:16:28;96210;;;4.8;74
68489;BME280;55481;48.764;8.936;2024-03-25T03:18:59;96210;;;4.7;74
68489;BME280;55481;48.764;8.936;2024-03-25T03:21:30;96200;;;4.7;74
68489;BME280;55481;48.764;8.936;2024-03-25T03:24:01;96200;;;4.6;74
68489;BME280;55481;48.764;8.936;2024-03-25T03:26:38;96210;;;4.6;74
68489;BME280;55481;48.764;8.936;2024-03-25T03:31:26;96200;;;4.6;74
68489;BME280;55481;48.764;8.936;2024-03-25T03:33:57;96200;;;4.6;74
68489;BME280;55481;48.764;8.936;2024-03-25T03:36:28;96200;;;4.5;74
68489;BME280;55481;48.764;8.936;2024-03-25T03:38:59;96200;;;4.5;74
68489;BME280;55481;48.764;8.936;2024-03-25T03:41:29;96200;;;4.4;74
68489;BME280;55481;48.764;8.936;2024-03-25T03:44:00;96200;;;4.4;74.5
68489;BME280;55481;48.764;8.936;2024-03-25T03:46:31;96200;;;4.3;74.5
68489;BME280;55481;48.764;8.936;2024-03-25T03:49:02;96210;;;4.3;74.5
68489;BME280;55481;48.764;8.936;2024-03-25T03:56:34;96210;;;4.2;74.5
68489;BME280;55481;48.764;8.936;2024-03-25T03:59:05;96220;;;4.2;74.5
68489;BME280;55481;48.764;8.936;2024-03-25T04:01:49;96220;;;4.2;74.5
68489;BME280;55481;48.764;8.936;2024-03-25T04:04:13;96230;;;4.2;74
68489;BME280;55481;48.764;8.936;2024-03-25T04:06:45;96230;;;4.2;74
68489;BME280;55481;48.764;8.936;2024-03-25T04:11:39;96230;;;4.1;74.5
68489;BME280;55481;48.764;8.936;2024-03-25T04:14:10;96230;;;4.1;74.5
68489;BME280;55481;48.764;8.936;2024-03-25T04:16:41;96230;;;4.1;74.5
68489;BME280;55481;48.764;8.936;2024-03-25T04:24:13;96220;;;4.1;74.5
68489;BME280;55481;48.764;8.936;2024-03-25T04:26:44;96220;;;4;74.5
68489;BME280;55481;48.764;8.936;2024-03-25T04:29:15;96220;;;4.1;74.5
68489;BME280;55481;48.764;8.936;2024-03-25T04:31:53;96220;;;4;74.5
68489;BME280;55481;48.764;8.936;2024-03-25T04:34:23;96220;;;4;74.5
68489;BME280;55481;48.764;8.936;2024-03-25T04:36:54;96220;;;4;74.5
68489;BME280;55481;48.764;8.936;2024-03-25T04:41:48;96220;;;4;74.5
68489;BME280;55481;48.764;8.936;2024-03-25T04:44:19;96230;;;4;74.5
68489;BME280;55481;48.764;8.936;2024-03-25T04:51:52;96240;;;3.9;75
68489;BME280;55481;48.764;8.936;2024-03-25T04:54:22;96230;;;4;74.5
68489;BME280;55481;48.764;8.936;2024-03-25T04:56:53;96230;;;4;74.5
68489;BME280;55481;48.764;8.936;2024-03-25T04:59:31;96230;;;4;74.5
68489;BME280;55481;48.764;8.936;2024-03-25T05:02:02;96230;;;4;74.5
68489;BME280;55481;48.764;8.936;2024-03-25T05:04:33;96240;;;4;74.5
68489;BME280;55481;48.764;8.936;2024-03-25T05:06:57;96230;;;4.1;74.5
68489;BME280;55481;48.764;8.936;2024-03-25T05:09:28;96240;;;4.1;74.5
68489;BME280;55481;48.764;8.936;2024-03-25T05:11:58;96240;;;4.1;74.5
68489;BME280;55481;48.764;8.936;2024-03-25T05:14:28;96250;;;4;74.5
68489;BME280;55481;48.764;8.936;2024-03-25T05:22:01;96240;;;3.9;75
68489;BME280;55481;48.764;8.936;2024-03-25T05:24:38;96240;;;3.9;74.5
68489;BME280;55481;48.764;8.936;2024-03-25T05:27:09;96240;;;3.9;74.5
68489;BME280;55481;48.764;8.936;2024-03-25T05:29:39;96240;;;4;74.5
68489;BME280;55481;48.764;8.936;2024-03-25T05:32:10;96240;;;4;74.5
68489;BME280;55481;48.764;8.936;2024-03-25T05:34:40;96240;;;4;74.5
68489;BME280;55481;48.764;8.936;2024-03-25T05:39:42;96250;;;4;74.5
68489;BME280;55481;48.764;8.936;2024-03-25T05:42:12;96250;;;4;74.5
68489;BME280;55481;48.764;8.936;2024-03-25T05:44:45;96250;;;4;74.5
68489;BME280;55481;48.764;8.936;2024-03-25T05:47:21;96250;;;4;74.5
68489;BME280;55481;48.764;8.936;2024-03-25T05:49:52;96250;;;4.1;74.5
68489;BME280;55481;48.764;8.936;2024-03-25T05:57:25;96250;;;4;74.5
68489;BME280;55481;48.764;8.936;2024-03-25T05:59:55;96250;;;4;74.5
68489;BME280;55481;48.764;8.936;2024-03-25T06:02:20;96240;;;4;74.5
68489;BME280;55481;48.764;8.936;2024-03-25T06:04:51;96240;;;4.1;74
68489;BME280;55481;48.764;8.936;2024-03-25T06:07:22;96240;;;4.2;74
68489;BME280;55481;48.764;8.936;2024-03-25T06:09:52;96250;;;4.1;74
68489;BME280;55481;48.764;8.936;2024-03-25T06:12:23;96250;;;4;74
68489;BME280;55481;48.764;8.936;2024-03-25T06:14:54;96240;;;3.9;74.5
68489;BME280;55481;48.764;8.936;2024-03-25T06:17:32;96250;;;3.9;74.5
68489;BME280;55481;48.764;8.936;2024-03-25T06:19:56;96250;;;4;74
68489;BME280;55481;48.764;8.936;2024-03-25T06:22:27;96250;;;4;74
68489;BME280;55481;48.764;8.936;2024-03-25T06:24:58;96260;;;4.1;74
68489;BME280;55481;48.764;8.936;2024-03-25T06:30:10;96250;;;4.4;73.5
68489;BME280;55481;48.764;8.936;2024-03-25T06:32:31;96250;;;4.5;73
68489;BME280;55481;48.764;8.936;2024-03-25T06:35:02;96250;;;4.7;73
68489;BME280;55481;48.764;8.936;2024-03-25T06:39:57;96250;;;4.9;72.5
68489;BME280;55481;48.764;8.936;2024-03-25T06:42:28;96250;;;5;72.5
68489;BME280;55481;48.764;8.936;2024-03-25T06:47:42;96260;;;5;73
68489;BME280;55481;48.764;8.936;2024-03-25T06:50:19;96260;;;5.1;73
68489;BME280;55481;48.764;8.936;2024-03-25T06:55:13;96250;;;5.4;72.5
68489;BME280;55481;48.764;8.936;2024-03-25T06:57:43;96260;;;5.4;72.5
68489;BME280;55481;48.764;8.936;2024-03-25T07:00:14;96260;;;5.4;72.5
68489;BME280;55481;48.764;8.936;2024-03-25T07:02:44;96270;;;5.6;72.5
68489;BME280;55481;48.764;8.936;2024-03-25T07:05:14;96270;;;5.7;72.5
68489;BME280;55481;48.764;8.936;2024-03-25T07:10:15;96260;;;5.8;72
68489;BME280;55481;48.764;8.936;2024-03-25T07:12:45;96260;;;5.8;72.5
68489;BME280;55481;48.764;8.936;2024-03-25T07:17:41;96250;;;6;72
68489;BME280;55481;48.764;8.936;2024-03-25T07:22:48;96250;;;6.4;72
68489;BME280;55481;48.764;8.936;2024-03-25T07:25:19;96240;;;6.5;71.5
68489;BME280;55481;48.764;8.936;2024-03-25T07:27:43;96240;;;6.5;72
68489;BME280;55481;48.764;8.936;2024-03-25T07:30:14;96240;;;6.6;72
68489;BME280;55481;48.764;8.936;2024-03-25T07:37:40;96240;;;7.2;71
68489;BME280;55481;48.764;8.936;2024-03-25T07:40:10;96230;;;7.2;71
68489;BME280;55481;48.764;8.936;2024-03-25T07:42:43;96230;;;7.3;71
68489;BME280;55481;48.764;8.936;2024-03-25T07:45:12;96220;;;7.4;71
68489;BME280;55481;48.764;8.936;2024-03-25T07:47:43;96220;;;7.5;71
68489;BME280;55481;48.764;8.936;2024-03-25T07:50:14;96220;;;7.5;71
68489;BME280;55481;48.764;8.936;2024-03-25T07:52:44;96220;;;7.6;71
68489;BME280;55481;48.764;8.936;2024-03-25T07:55:15;96220;;;7.7;71
68489;BME280;55481;48.764;8.936;2024-03-25T08:02:48;96230;;;8.1;70.5
68489;BME280;55481;48.764;8.936;2024-03-25T08:05:18;96220;;;8.4;70
68489;BME280;55481;48.764;8.936;2024-03-25T08:07:56;96230;;;8.2;70
68489;BME280;55481;48.764;8.936;2024-03-25T08:12:57;96230;;;8.4;71
68489;BME280;55481;48.764;8.936;2024-03-25T08:15:28;96220;;;8.2;70.5
68489;BME280;55481;48.764;8.936;2024-03-25T08:17:58;96220;;;8.2;71
68489;BME280;55481;48.764;8.936;2024-03-25T08:20:29;96200;;;8.6;70.5
68489;BME280;55481;48.764;8.936;2024-03-25T08:23:00;96200;;;8.6;70.5
68489;BME280;55481;48.764;8.936;2024-03-25T08:25:31;96200;;;9;69.5
68489;BME280;55481;48.764;8.936;2024-03-25T08:28:15;96200;;;9.3;69
68489;BME280;55481;48.764;8.936;2024-03-25T08:30:52;96200;;;8.7;70
68489;BME280;55481;48.764;8.936;2024-03-25T08:35:33;96200;;;8.3;71.5
68489;BME280;55481;48.764;8.936;2024-03-25T08:38:04;96190;;;8.9;70.5
68489;BME280;55481;48.764;8.936;2024-03-25T08:40:35;96190;;;9.8;68.5
68489;BME280;55481;48.764;8.936;2024-03-25T08:45:30;96180;;;9.9;68.5
68489;BME280;55481;48.764;8.936;2024-03-25T08:48:04;96190;;;9.7;69
68489;BME280;55481;48.764;8.936;2024-03-25T08:50:33;96190;;;10.2;68.5
68489;BME280;55481;48.764;8.936;2024-03-25T08:55:33;96170;;;10.7;67.5
68489;BME280;55481;48.764;8.936;2024-03-25T08:58:04;96170;;;10.3;68
68489;BME280;55481;48.764;8.936;2024-03-25T09:00:34;96160;;;10.5;68
68489;BME280;55481;48.764;8.936;2024-03-25T09:03:12;96160;;;10.1;68.5
68489;BME280;55481;48.764;8.936;2024-03-25T09:05:43;96160;;;10.2;69
68489;BME280;55481;48.764;8.936;2024-03-25T09:10:38;96160;;;10.5;68
68489;BME280;55481;48.764;8.936;2024-03-25T09:13:09;96170;;;9.6;70
68489;BME280;55481;48.764;8.936;2024-03-25T09:15:39;96170;;;9;71
68489;BME280;55481;48.764;8.936;2024-03-25T09:19:19;96180;;;8.3;73.5
68489;BME280;55481;48.764;8.936;2024-03-25T09:21:39;96170;;;8.5;73.5
68489;BME280;55481;48.764;8.936;2024-03-25T09:31:41;96150;;;8.8;71
68489;BME280;55481;48.764;8.936;2024-03-25T09:34:14;96150;;;8.5;71.5
68489;BME280;55481;48.764;8.936;2024-03-25T09:36:42;96150;;;8.6;71.5
68489;BME280;55481;48.764;8.936;2024-03-25T09:39:37;96150;;;8.9;71
68489;BME280;55481;48.764;8.936;2024-03-25T09:41:57;96140;;;9.8;69
68489;BME280;55481;48.764;8.936;2024-03-25T09:44:22;96140;;;10.2;67.5
68489;BME280;55481;48.764;8.936;2024-03-25T09:46:52;96140;;;9.2;69.5
68489;BME280;55481;48.764;8.936;2024-03-25T09:49:23;96140;;;9;70.5
68489;BME280;55481;48.764;8.936;2024-03-25T09:51:54;96140;;;9;70.5
68489;BME280;55481;48.764;8.936;2024-03-25T09:56:48;96130;;;8.7;70.5
68489;BME280;55481;48.764;8.936;2024-03-25T09:59:19;96120;;;8.7;70.5
68489;BME280;55481;48.764;8.936;2024-03-25T10:01:50;96120;;;8.5;71
68489;BME280;55481;48.764;8.936;2024-03-25T10:04:21;96110;;;8.9;70.5
68489;BME280;55481;48.764;8.936;2024-03-25T10:09:35;96100;;;9;69.5
68489;BME280;55481;48.764;8.936;2024-03-25T10:12:05;96100;;;9.2;69.5
68489;BME280;55481;48.764;8.936;2024-03-25T10:16:59;96080;;;10.5;67
68489;BME280;55481;48.764;8.936;2024-03-25T10:19:30;96080;;;10.7;66.5
68489;BME280;55481;48.764;8.936;2024-03-25T10:22:08;96070;;;11;66
68489;BME280;55481;48.764;8.936;2024-03-25T10:29:54;96060;;;11.1;66.5
68489;BME280;55481;48.764;8.936;2024-03-25T10:32:10;96060;;;11;67
68489;BME280;55481;48.764;8.936;2024-03-25T10:34:41;96060;;;10.8;67
68489;BME280;55481;48.764;8.936;2024-03-25T10:39:43;96060;;;10.9;67.5
68489;BME280;55481;48.764;8.936;2024-03-25T10:42:06;96050;;;11;67
68489;BME280;55481;48.764;8.936;2024-03-25T10:44:36;96050;;;11.2;67
68489;BME280;55481;48.764;8.936;2024-03-25T10:47:08;96040;;;12.1;65.5
68489;BME280;55481;48.764;8.936;2024-03-25T10:49:48;96040;;;12.2;65
68489;BME280;55481;48.764;8.936;2024-03-25T10:52:16;96030;;;11.9;66
68489;BME280;55481;48.764;8.936;2024-03-25T10:54:41;96030;;;12.3;65.5
68489;BME280;55481;48.764;8.936;2024-03-25T10:57:12;96030;;;12.3;65
68489;BME280;55481;48.764;8.936;2024-03-25T10:59:42;96030;;;12;66
68489;BME280;55481;48.764;8.936;2024-03-25T11:02:13;96030;;;11.2;68
68489;BME280;55481;48.764;8.936;2024-03-25T11:04:44;96020;;;11.7;67
68489;BME280;55481;48.764;8.936;2024-03-25T11:07:09;96010;;;11.5;67
68489;BME280;55481;48.764;8.936;2024-03-25T11:09:38;96010;;;11.8;66
68489;BME280;55481;48.764;8.936;2024-03-25T11:12:10;96000;;;11.9;66
68489;BME280;55481;48.764;8.936;2024-03-25T11:22:12;95990;;;11.5;67.5
68489;BME280;55481;48.764;8.936;2024-03-25T11:27:22;95980;;;11.6;66.5
68489;BME280;55481;48.764;8.936;2024-03-25T11:29:51;95980;;;11.7;66.5
68489;BME280;55481;48.764;8.936;2024-03-25T11:32:22;95970;;;12.1;65.5
68489;BME280;55481;48.764;8.936;2024-03-25T11:34:53;95970;;;11.7;66.5
68489;BME280;55481;48.764;8.936;2024-03-25T11:37:24;95960;;;11.7;66.5
68489;BME280;55481;48.764;8.936;2024-03-25T11:39:48;95960;;;11.8;66
68489;BME280;55481;48.764;8.936;2024-03-25T11:42:19;95950;;;11.3;67
68489;BME280;55481;48.764;8.936;2024-03-25T11:47:28;95950;;;11.6;66
68489;BME280;55481;48.764;8.936;2024-03-25T11:49:51;95940;;;12;65
68489;BME280;55481;48.764;8.936;2024-03-25T11:52:21;95940;;;12.1;64.5
68489;BME280;55481;48.764;8.936;2024-03-25T11:57:29;95930;;;11.9;65
68489;BME280;55481;48.764;8.936;2024-03-25T12:00:00;95930;;;11.6;66
68489;BME280;55481;48.764;8.936;2024-03-25T12:02:31;95910;;;13;64
68489;BME280;55481;48.764;8.936;2024-03-25T12:07:26;95900;;;13.3;61.5
68489;BME280;55481;48.764;8.936;2024-03-25T12:09:57;95910;;;12.5;64
68489;BME280;55481;48.764;8.936;2024-03-25T12:12:29;95890;;;15.4;59
68489;BME280;55481;48.764;8.936;2024-03-25T12:20:02;95860;;;19;53
68489;BME280;55481;48.764;8.936;2024-03-25T12:22:32;95860;;;18;56
68489;BME280;55481;48.764;8.936;2024-03-25T12:25:09;95850;;;17.7;57
68489;BME280;55481;48.764;8.936;2024-03-25T12:27:39;95840;;;17.5;57.5
68489;BME280;55481;48.764;8.936;2024-03-25T12:30:19;95840;;;16.7;59.5
68489;BME280;55481;48.764;8.936;2024-03-25T12:32:42;95830;;;17.2;58.5
68489;BME280;55481;48.764;8.936;2024-03-25T12:38:06;95830;;;17.4;57.5
68489;BME280;55481;48.764;8.936;2024-03-25T12:40:26;95820;;;17.6;57.5
68489;BME280;55481;48.764;8.936;2024-03-25T12:42:51;95810;;;18.4;55.5
68489;BME280;55481;48.764;8.936;2024-03-25T12:47:45;95820;;;13.4;65
68489;BME280;55481;48.764;8.936;2024-03-25T12:52:52;95830;;;13.5;64
68489;BME280;55481;48.764;8.936;2024-03-25T12:55:23;95830;;;13;64.5
68489;BME280;55481;48.764;8.936;2024-03-25T12:57:46;95820;;;13.8;63
68489;BME280;55481;48.764;8.936;2024-03-25T13:00:19;95810;;;14.6;60.5
68489;BME280;55481;48.764;8.936;2024-03-25T13:02:49;95790;;;16.7;56
68489;BME280;55481;48.764;8.936;2024-03-25T13:10:33;95770;;;19.5;51.5
68489;BME280;55481;48.764;8.936;2024-03-25T13:13:10;95770;;;19.7;51.5
68489;BME280;55481;48.764;8.936;2024-03-25T13:15:27;95760;;;19.4;52.5
68489;BME280;55481;48.764;8.936;2024-03-25T13:20:21;95760;;;18.6;55.5
68489;BME280;55481;48.764;8.936;2024-03-25T13:22:53;95770;;;18.1;56.5
68489;BME280;55481;48.764;8.936;2024-03-25T13:25:23;95760;;;18.1;56.5
68489;BME280;55481;48.764;8.936;2024-03-25T13:27:54;95750;;;18.1;56
68489;BME280;55481;48.764;8.936;2024-03-25T13:32:49;95760;;;15.8;60
68489;BME280;55481;48.764;8.936;2024-03-25T13:35:20;95760;;;14.3;61.5
68489;BME280;55481;48.764;8.936;2024-03-25T13:37:51;95750;;;14.7;61.5
68489;BME280;55481;48.764;8.936;2024-03-25T13:40:22;95730;;;17.9;54.5
68489;BME280;55481;48.764;8.936;2024-03-25T13:42:52;95720;;;19.9;50.5
68489;BME280;55481;48.764;8.936;2024-03-25T13:45:23;95710;;;20.2;49.5
68489;BME280;55481;48.764;8.936;2024-03-25T13:47:54;95710;;;20.5;49.5
68489;BME280;55481;48.764;8.936;2024-03-25T13:58:10;95700;;;20.2;51.5
68489;BME280;55481;48.764;8.936;2024-03-25T14:00:34;95690;;;21.1;49.5
68489;BME280;55481;48.764;8.936;2024-03-25T14:03:05;95670;;;22;47.5
68489;BME280;55481;48.764;8.936;2024-03-25T14:08:00;95680;;;21.5;48.5
68489;BME280;55481;48.764;8.936;2024-03-25T14:10:31;95680;;;20.7;50
68489;BME280;55481;48.764;8.936;2024-03-25T14:13:02;95680;;;20.9;49.5
68489;BME280;55481;48.764;8.936;2024-03-25T14:15:32;95670;;;22.1;47.5
68489;BME280;55481;48.764;8.936;2024-03-25T14:18:03;95660;;;22.4;46.5
68489;BME280;55481;48.764;8.936;2024-03-25T14:25:37;95650;;;20.5;50
68489;BME280;55481;48.764;8.936;2024-03-25T14:28:06;95640;;;20.5;49
68489;BME280;55481;48.764;8.936;2024-03-25T14:30:44;95640;;;19.5;51
68489;BME280;55481;48.764;8.936;2024-03-25T14:33:15;95630;;;21;48.5
68489;BME280;55481;48.764;8.936;2024-03-25T14:35:48;95610;;;21.6;46.5
68489;BME280;55481;48.764;8.936;2024-03-25T14:38:10;95620;;;20.3;48.5
68489;BME280;55481;48.764;8.936;2024-03-25T14:40:40;95620;;;20.6;48
68489;BME280;55481;48.764;8.936;2024-03-25T14:43:11;95610;;;20.4;48
68489;BME280;55481;48.764;8.936;2024-03-25T14:45:42;95610;;;21.2;46.5
68489;BME280;55481;48.764;8.936;2024-03-25T14:48:13;95600;;;21.1;46
68489;BME280;55481;48.764;8.936;2024-03-25T14:53:27;95600;;;19.6;49
68489;BME280;55481;48.764;8.936;2024-03-25T15:00:53;95600;;;20.1;46.5
68489;BME280;55481;48.764;8.936;2024-03-25T15:03:23;95590;;;20.1;46.5
68489;BME280;55481;48.764;8.936;2024-03-25T15:05:54;95590;;;20.4;45.5
68489;BME280;55481;48.764;8.936;2024-03-25T15:08:25;95580;;;19.5;47
68489;BME280;55481;48.764;8.936;2024-03-25T15:11:03;95580;;;19.1;47.5
68489;BME280;55481;48.764;8.936;2024-03-25T15:13:27;95580;;;18.7;48
68489;BME280;55481;48.764;8.936;2024-03-25T15:15:51;95570;;;19.5;46.5
68489;BME280;55481;48.764;8.936;2024-03-25T15:23:23;95570;;;18.7;47
68489;BME280;55481;48.764;8.936;2024-03-25T15:25:54;95570;;;18.4;47
68489;BME280;55481;48.764;8.936;2024-03-25T15:28:25;95560;;;18.6;47
68489;BME280;55481;48.764;8.936;2024-03-25T15:30:56;95560;;;17.7;47.5
68489;BME280;55481;48.764;8.936;2024-03-25T15:33:26;95560;;;16.4;49.5
68489;BME280;55481;48.764;8.936;2024-03-25T15:35:57;95560;;;15.2;51
68489;BME280;55481;48.764;8.936;2024-03-25T15:38:34;95560;;;14.3;52
68489;BME280;55481;48.764;8.936;2024-03-25T15:41:12;95560;;;14.1;51.5
68489;BME280;55481;48.764;8.936;2024-03-25T15:43:36;95550;;;14.4;50.5
68489;BME280;55481;48.764;8.936;2024-03-25T15:46:08;95550;;;14.1;50.5
68489;BME280;55481;48.764;8.936;2024-03-25T15:48:45;95550;;;14;50.5
68489;BME280;55481;48.764;8.936;2024-03-25T15:51:22;95550;;;13.8;50
68489;BME280;55481;48.764;8.936;2024-03-25T15:53:40;95540;;;13.1;51
68489;BME280;55481;48.764;8.936;2024-03-25T15:56:10;95540;;;13.1;51
68489;BME280;55481;48.764;8.936;2024-03-25T15:58:41;95540;;;13.3;50
68489;BME280;55481;48.764;8.936;2024-03-25T16:01:12;95530;;;12.7;50.5
68489;BME280;55481;48.764;8.936;2024-03-25T16:06:06;95530;;;12.5;51
68489;BME280;55481;48.764;8.936;2024-03-25T16:08:37;95530;;;12.5;51
68489;BME280;55481;48.764;8.936;2024-03-25T16:18:40;95530;;;11.7;51.5
68489;BME280;55481;48.764;8.936;2024-03-25T16:21:12;95530;;;11.7;51.5
68489;BME280;55481;48.764;8.936;2024-03-25T16:26:25;95520;;;11.5;51.5
68489;BME280;55481;48.764;8.936;2024-03-25T16:28:55;95520;;;11.5;51.5
68489;BME280;55481;48.764;8.936;2024-03-25T16:31:20;95510;;;11.3;51.5
68489;BME280;55481;48.764;8.936;2024-03-25T16:33:51;95500;;;11.2;52
68489;BME280;55481;48.764;8.936;2024-03-25T16:36:21;95500;;;11.1;52
68489;BME280;55481;48.764;8.936;2024-03-25T16:38:52;95500;;;11;52
68489;BME280;55481;48.764;8.936;2024-03-25T16:41:30;95490;;;10.9;52
68489;BME280;55481;48.764;8.936;2024-03-25T16:44:01;95490;;;10.8;52
68489;BME280;55481;48.764;8.936;2024-03-25T16:48:57;95490;;;10.7;52
68489;BME280;55481;48.764;8.936;2024-03-25T16:51:27;95480;;;10.6;52
68489;BME280;55481;48.764;8.936;2024-03-25T16:53:58;95480;;;10.6;52
68489;BME280;55481;48.764;8.936;2024-03-25T16:56:30;95480;;;10.5;52
68489;BME280;55481;48.764;8.936;2024-03-25T16:59:00;95480;;;10.5;52
68489;BME280;55481;48.764;8.936;2024-03-25T17:01:32;95480;;;10.4;52.5
68489;BME280;55481;48.764;8.936;2024-03-25T17:04:02;95470;;;10.4;52.5
68489;BME280;55481;48.764;8.936;2024-03-25T17:06:33;95470;;;10.3;52.5
68489;BME280;55481;48.764;8.936;2024-03-25T17:09:04;95480;;;10.3;52.5
68489;BME280;55481;48.764;8.936;2024-03-25T17:11:42;95470;;;10.2;52.5
68489;BME280;55481;48.764;8.936;2024-03-25T17:16:37;95480;;;10.1;52.5
68489;BME280;55481;48.764;8.936;2024-03-25T17:19:08;95480;;;10;52.5
68489;BME280;55481;48.764;8.936;2024-03-25T17:21:39;95480;;;9.9;52.5
68489;BME280;55481;48.764;8.936;2024-03-25T17:24:10;95490;;;9.7;53
68489;BME280;55481;48.764;8.936;2024-03-25T17:26:41;95480;;;9.7;53
68489;BME280;55481;48.764;8.936;2024-03-25T17:29:12;95480;;;9.6;53
68489;BME280;55481;48.764;8.936;2024-03-25T17:31:43;95480;;;9.5;53
68489;BME280;55481;48.764;8.936;2024-03-25T17:34:07;95480;;;9.4;53
68489;BME280;55481;48.764;8.936;2024-03-25T17:41:39;95470;;;9.3;53
68489;BME280;55481;48.764;8.936;2024-03-25T17:47:07;95480;;;9;53.5
68489;BME280;55481;48.764;8.936;2024-03-25T17:49:26;95470;;;8.9;53.5
68489;BME280;55481;48.764;8.936;2024-03-25T17:51:54;95470;;;8.8;53.5
68489;BME280;55481;48.764;8.936;2024-03-25T17:56:48;95470;;;8.5;54
68489;BME280;55481;48.764;8.936;2024-03-25T17:59:19;95470;;;8.4;54
68489;BME280;55481;48.764;8.936;2024-03-25T18:01:49;95470;;;8.3;54
68489;BME280;55481;48.764;8.936;2024-03-25T18:09:15;95470;;;8.1;54
68489;BME280;55481;48.764;8.936;2024-03-25T18:11:46;95470;;;8;54
68489;BME280;55481;48.764;8.936;2024-03-25T18:14:17;95470;;;8;54
68489;BME280;55481;48.764;8.936;2024-03-25T18:16:47;95470;;;7.9;54
68489;BME280;55481;48.764;8.936;2024-03-25T18:19:25;95470;;;7.8;54
68489;BME280;55481;48.764;8.936;2024-03-25T18:21:56;95470;;;7.6;54.5
68489;BME280;55481;48.764;8.936;2024-03-25T18:24:27;95460;;;7.6;54.5
68489;BME280;55481;48.764;8.936;2024-03-25T18:26:58;95470;;;7.5;54.5
68489;BME280;55481;48.764;8.936;2024-03-25T18:29:33;95460;;;7.5;54.5
68489;BME280;55481;48.764;8.936;2024-03-25T18:31:59;95460;;;7.5;54
68489;BME280;55481;48.764;8.936;2024-03-25T18:34:37;95460;;;7.5;54
68489;BME280;55481;48.764;8.936;2024-03-25T18:42:22;95450;;;7.3;54.5
68489;BME280;55481;48.764;8.936;2024-03-25T18:44:39;95450;;;7.2;54.5
68489;BME280;55481;48.764;8.936;2024-03-25T18:49:33;95450;;;7.1;54.5